sensor_id;sensor_type;location;lat;lon;timestamp;P1;durP1;ratioP1;P2;durP2;ratioP2
4132;SDS011;2080;51.038;7.008;2023-11-19T00:00:08;17.13;;;1.88;;
4132;SDS011;2080;51.038;7.008;2023-11-19T00:02:38;15.15;;;1.85;;
4132;SDS011;2080;51.038;7.008;2023-11-19T00:05:04;16.13;;;1.55;;
4132;SDS011;2080;51.038;7.008;2023-11-19T00:07:33;16.05;;;1.85;;
4132;SDS011;2080;51.038;7.008;2023-11-19T00:10:01;13.50;;;1.70;;
4132;SDS011;2080;51.038;7.008;2023-11-19T00:12:31;12.60;;;1.40;;
4132;SDS011;2080;51.038;7.008;2023-11-19T00:14:57;18.10;;;2.10;;
4132;SDS011;2080;51.038;7.008;2023-11-19T00:17:25;17.83;;;1.75;;
4132;SDS011;2080;51.038;7.008;2023-11-19T00:19:53;13.93;;;1.60;;
4132;SDS011;2080;51.038;7.008;2023-11-19T00:22:21;14.85;;;1.85;;
4132;SDS011;2080;51.038;7.008;2023-11-19T00:24:47;13.02;;;1.70;;
4132;SDS011;2080;51.038;7.008;2023-11-19T00:27:12;14.40;;;1.67;;
4132;SDS011;2080;51.038;7.008;2023-11-19T00:29:38;14.43;;;1.90;;
4132;SDS011;2080;51.038;7.008;2023-11-19T00:32:03;12.30;;;1.20;;
4132;SDS011;2080;51.038;7.008;2023-11-19T00:34:32;14.13;;;1.77;;
4132;SDS011;2080;51.038;7.008;2023-11-19T00:36:57;13.00;;;1.60;;
4132;SDS011;2080;51.038;7.008;2023-11-19T00:39:23;24.27;;;2.03;;
4132;SDS011;2080;51.038;7.008;2023-11-19T00:41:48;20.98;;;1.60;;
4132;SDS011;2080;51.038;7.008;2023-11-19T00:44:14;14.90;;;1.50;;
4132;SDS011;2080;51.038;7.008;2023-11-19T00:46:39;13.43;;;1.20;;
4132;SDS011;2080;51.038;7.008;2023-11-19T00:49:04;19.00;;;1.30;;
4132;SDS011;2080;51.038;7.008;2023-11-19T00:51:33;13.02;;;1.48;;
4132;SDS011;2080;51.038;7.008;2023-11-19T00:53:59;12.40;;;1.20;;
4132;SDS011;2080;51.038;7.008;2023-11-19T00:56:25;18.73;;;1.75;;
4132;SDS011;2080;51.038;7.008;2023-11-19T00:58:51;19.83;;;1.55;;
4132;SDS011;2080;51.038;7.008;2023-11-19T01:01:17;13.50;;;1.50;;
4132;SDS011;2080;51.038;7.008;2023-11-19T01:03:44;19.37;;;1.80;;
4132;SDS011;2080;51.038;7.008;2023-11-19T01:06:10;13.18;;;1.63;;
4132;SDS011;2080;51.038;7.008;2023-11-19T01:08:35;15.30;;;1.80;;
4132;SDS011;2080;51.038;7.008;2023-11-19T01:11:01;21.57;;;1.80;;
4132;SDS011;2080;51.038;7.008;2023-11-19T01:13:29;17.83;;;1.73;;
4132;SDS011;2080;51.038;7.008;2023-11-19T01:15:54;14.05;;;1.67;;
4132;SDS011;2080;51.038;7.008;2023-11-19T01:18:27;15.27;;;1.90;;
4132;SDS011;2080;51.038;7.008;2023-11-19T01:20:52;14.10;;;1.60;;
4132;SDS011;2080;51.038;7.008;2023-11-19T01:23:18;15.40;;;1.75;;
4132;SDS011;2080;51.038;7.008;2023-11-19T01:25:43;13.67;;;1.77;;
4132;SDS011;2080;51.038;7.008;2023-11-19T01:28:08;17.57;;;1.47;;
4132;SDS011;2080;51.038;7.008;2023-11-19T01:30:36;16.30;;;1.63;;
4132;SDS011;2080;51.038;7.008;2023-11-19T01:33:01;20.70;;;2.00;;
4132;SDS011;2080;51.038;7.008;2023-11-19T01:35:27;17.80;;;1.90;;
4132;SDS011;2080;51.038;7.008;2023-11-19T01:37:54;14.15;;;1.67;;
4132;SDS011;2080;51.038;7.008;2023-11-19T01:40:22;18.67;;;1.52;;
4132;SDS011;2080;51.038;7.008;2023-11-19T01:42:48;15.43;;;1.87;;
4132;SDS011;2080;51.038;7.008;2023-11-19T01:45:22;17.27;;;1.75;;
4132;SDS011;2080;51.038;7.008;2023-11-19T01:47:54;19.40;;;1.90;;
4132;SDS011;2080;51.038;7.008;2023-11-19T01:50:20;16.05;;;1.63;;
4132;SDS011;2080;51.038;7.008;2023-11-19T01:52:46;14.80;;;2.00;;
4132;SDS011;2080;51.038;7.008;2023-11-19T01:55:11;13.47;;;1.60;;
4132;SDS011;2080;51.038;7.008;2023-11-19T01:57:37;13.57;;;1.55;;
4132;SDS011;2080;51.038;7.008;2023-11-19T02:00:06;15.23;;;1.58;;
4132;SDS011;2080;51.038;7.008;2023-11-19T02:02:36;16.00;;;1.67;;
4132;SDS011;2080;51.038;7.008;2023-11-19T02:05:01;18.23;;;1.70;;
4132;SDS011;2080;51.038;7.008;2023-11-19T02:07:27;19.40;;;1.80;;
4132;SDS011;2080;51.038;7.008;2023-11-19T02:09:58;18.80;;;1.70;;
4132;SDS011;2080;51.038;7.008;2023-11-19T02:12:25;14.70;;;1.60;;
4132;SDS011;2080;51.038;7.008;2023-11-19T02:14:54;15.88;;;1.90;;
4132;SDS011;2080;51.038;7.008;2023-11-19T02:17:26;15.53;;;1.80;;
4132;SDS011;2080;51.038;7.008;2023-11-19T02:19:52;16.75;;;1.92;;
4132;SDS011;2080;51.038;7.008;2023-11-19T02:22:18;25.65;;;2.45;;
4132;SDS011;2080;51.038;7.008;2023-11-19T02:24:44;14.90;;;2.10;;
4132;SDS011;2080;51.038;7.008;2023-11-19T02:27:15;15.33;;;1.90;;
4132;SDS011;2080;51.038;7.008;2023-11-19T02:29:47;23.70;;;2.25;;
4132;SDS011;2080;51.038;7.008;2023-11-19T02:32:12;18.27;;;2.22;;
4132;SDS011;2080;51.038;7.008;2023-11-19T02:34:40;16.52;;;1.90;;
4132;SDS011;2080;51.038;7.008;2023-11-19T02:37:06;16.67;;;2.23;;
4132;SDS011;2080;51.038;7.008;2023-11-19T02:39:34;17.70;;;2.40;;
4132;SDS011;2080;51.038;7.008;2023-11-19T02:42:00;24.57;;;2.10;;
4132;SDS011;2080;51.038;7.008;2023-11-19T02:44:28;20.02;;;2.22;;
4132;SDS011;2080;51.038;7.008;2023-11-19T02:46:55;15.23;;;1.73;;
4132;SDS011;2080;51.038;7.008;2023-11-19T02:49:24;24.02;;;2.38;;
4132;SDS011;2080;51.038;7.008;2023-11-19T02:51:49;21.17;;;2.20;;
4132;SDS011;2080;51.038;7.008;2023-11-19T02:54:17;20.08;;;2.33;;
4132;SDS011;2080;51.038;7.008;2023-11-19T02:56:43;27.00;;;2.23;;
4132;SDS011;2080;51.038;7.008;2023-11-19T02:59:08;29.30;;;2.43;;
4132;SDS011;2080;51.038;7.008;2023-11-19T03:01:43;17.85;;;2.10;;
4132;SDS011;2080;51.038;7.008;2023-11-19T03:04:13;20.10;;;2.50;;
4132;SDS011;2080;51.038;7.008;2023-11-19T03:06:45;24.35;;;2.90;;
4132;SDS011;2080;51.038;7.008;2023-11-19T03:09:13;34.47;;;2.75;;
4132;SDS011;2080;51.038;7.008;2023-11-19T03:11:40;16.60;;;1.98;;
4132;SDS011;2080;51.038;7.008;2023-11-19T03:14:06;21.53;;;2.20;;
4132;SDS011;2080;51.038;7.008;2023-11-19T03:16:35;17.25;;;2.30;;
4132;SDS011;2080;51.038;7.008;2023-11-19T03:19:00;23.55;;;2.50;;
4132;SDS011;2080;51.038;7.008;2023-11-19T03:21:29;24.27;;;3.17;;
4132;SDS011;2080;51.038;7.008;2023-11-19T03:23:54;39.13;;;2.92;;
4132;SDS011;2080;51.038;7.008;2023-11-19T03:26:20;24.70;;;2.60;;
4132;SDS011;2080;51.038;7.008;2023-11-19T03:28:47;18.40;;;2.60;;
4132;SDS011;2080;51.038;7.008;2023-11-19T03:31:12;28.07;;;2.60;;
4132;SDS011;2080;51.038;7.008;2023-11-19T03:33:38;19.70;;;2.50;;
4132;SDS011;2080;51.038;7.008;2023-11-19T03:36:03;24.73;;;2.30;;
4132;SDS011;2080;51.038;7.008;2023-11-19T03:38:29;26.98;;;2.30;;
4132;SDS011;2080;51.038;7.008;2023-11-19T03:40:57;21.05;;;2.70;;
4132;SDS011;2080;51.038;7.008;2023-11-19T03:43:22;18.03;;;2.60;;
4132;SDS011;2080;51.038;7.008;2023-11-19T03:45:53;25.17;;;2.90;;
4132;SDS011;2080;51.038;7.008;2023-11-19T03:48:18;33.22;;;4.57;;
4132;SDS011;2080;51.038;7.008;2023-11-19T03:50:44;30.63;;;4.10;;
4132;SDS011;2080;51.038;7.008;2023-11-19T03:53:09;35.80;;;3.30;;
4132;SDS011;2080;51.038;7.008;2023-11-19T03:55:34;28.83;;;3.60;;
4132;SDS011;2080;51.038;7.008;2023-11-19T03:58:02;44.80;;;4.00;;
4132;SDS011;2080;51.038;7.008;2023-11-19T04:00:27;31.15;;;4.03;;
4132;SDS011;2080;51.038;7.008;2023-11-19T04:02:53;34.33;;;3.50;;
4132;SDS011;2080;51.038;7.008;2023-11-19T04:05:18;40.27;;;3.70;;
4132;SDS011;2080;51.038;7.008;2023-11-19T04:07:46;37.73;;;3.47;;
4132;SDS011;2080;51.038;7.008;2023-11-19T04:10:12;24.98;;;2.97;;
4132;SDS011;2080;51.038;7.008;2023-11-19T04:12:37;31.90;;;3.10;;
4132;SDS011;2080;51.038;7.008;2023-11-19T04:15:05;32.38;;;3.33;;
4132;SDS011;2080;51.038;7.008;2023-11-19T04:17:33;29.73;;;3.20;;
4132;SDS011;2080;51.038;7.008;2023-11-19T04:20:01;38.30;;;4.30;;
4132;SDS011;2080;51.038;7.008;2023-11-19T04:22:29;24.63;;;3.30;;
4132;SDS011;2080;51.038;7.008;2023-11-19T04:24:54;22.90;;;3.13;;
4132;SDS011;2080;51.038;7.008;2023-11-19T04:27:20;25.57;;;3.00;;
4132;SDS011;2080;51.038;7.008;2023-11-19T04:29:45;35.47;;;3.83;;
4132;SDS011;2080;51.038;7.008;2023-11-19T04:32:11;34.45;;;2.80;;
4132;SDS011;2080;51.038;7.008;2023-11-19T04:34:37;32.50;;;3.50;;
4132;SDS011;2080;51.038;7.008;2023-11-19T04:37:02;30.70;;;4.20;;
4132;SDS011;2080;51.038;7.008;2023-11-19T04:39:29;30.48;;;3.38;;
4132;SDS011;2080;51.038;7.008;2023-11-19T04:41:55;36.63;;;4.07;;
4132;SDS011;2080;51.038;7.008;2023-11-19T04:44:21;36.67;;;3.00;;
4132;SDS011;2080;51.038;7.008;2023-11-19T04:46:48;32.70;;;3.70;;
4132;SDS011;2080;51.038;7.008;2023-11-19T04:49:14;28.90;;;4.17;;
4132;SDS011;2080;51.038;7.008;2023-11-19T04:51:43;23.52;;;3.22;;
4132;SDS011;2080;51.038;7.008;2023-11-19T04:54:11;37.53;;;3.80;;
4132;SDS011;2080;51.038;7.008;2023-11-19T04:56:37;29.83;;;3.97;;
4132;SDS011;2080;51.038;7.008;2023-11-19T04:59:03;34.87;;;3.30;;
4132;SDS011;2080;51.038;7.008;2023-11-19T05:01:31;28.52;;;3.38;;
4132;SDS011;2080;51.038;7.008;2023-11-19T05:04:00;30.80;;;4.40;;
4132;SDS011;2080;51.038;7.008;2023-11-19T05:06:27;32.05;;;3.50;;
4132;SDS011;2080;51.038;7.008;2023-11-19T05:08:54;29.77;;;3.90;;
4132;SDS011;2080;51.038;7.008;2023-11-19T05:11:20;34.13;;;3.90;;
4132;SDS011;2080;51.038;7.008;2023-11-19T05:13:45;33.03;;;4.10;;
4132;SDS011;2080;51.038;7.008;2023-11-19T05:16:13;39.23;;;5.10;;
4132;SDS011;2080;51.038;7.008;2023-11-19T05:18:42;32.20;;;3.80;;
4132;SDS011;2080;51.038;7.008;2023-11-19T05:21:10;36.10;;;3.85;;
4132;SDS011;2080;51.038;7.008;2023-11-19T05:23:35;36.57;;;4.40;;
4132;SDS011;2080;51.038;7.008;2023-11-19T05:26:01;35.35;;;4.85;;
4132;SDS011;2080;51.038;7.008;2023-11-19T05:28:29;31.50;;;4.28;;
4132;SDS011;2080;51.038;7.008;2023-11-19T05:30:54;42.53;;;5.10;;
4132;SDS011;2080;51.038;7.008;2023-11-19T05:33:22;29.70;;;3.47;;
4132;SDS011;2080;51.038;7.008;2023-11-19T05:35:50;27.05;;;3.75;;
4132;SDS011;2080;51.038;7.008;2023-11-19T05:38:15;34.30;;;3.47;;
4132;SDS011;2080;51.038;7.008;2023-11-19T05:40:41;41.77;;;4.70;;
4132;SDS011;2080;51.038;7.008;2023-11-19T05:43:06;33.67;;;3.58;;
4132;SDS011;2080;51.038;7.008;2023-11-19T05:45:32;27.00;;;4.17;;
4132;SDS011;2080;51.038;7.008;2023-11-19T05:47:57;35.57;;;4.53;;
4132;SDS011;2080;51.038;7.008;2023-11-19T05:50:25;24.27;;;4.05;;
4132;SDS011;2080;51.038;7.008;2023-11-19T05:52:56;36.42;;;3.95;;
4132;SDS011;2080;51.038;7.008;2023-11-19T05:55:21;40.83;;;4.63;;
4132;SDS011;2080;51.038;7.008;2023-11-19T05:57:48;34.25;;;3.80;;
4132;SDS011;2080;51.038;7.008;2023-11-19T06:00:14;27.50;;;3.17;;
4132;SDS011;2080;51.038;7.008;2023-11-19T06:02:40;46.88;;;4.57;;
4132;SDS011;2080;51.038;7.008;2023-11-19T06:05:08;37.90;;;4.60;;
4132;SDS011;2080;51.038;7.008;2023-11-19T06:07:34;40.60;;;4.15;;
4132;SDS011;2080;51.038;7.008;2023-11-19T06:10:04;22.98;;;4.13;;
4132;SDS011;2080;51.038;7.008;2023-11-19T06:12:31;39.85;;;5.05;;
4132;SDS011;2080;51.038;7.008;2023-11-19T06:14:58;33.40;;;4.43;;
4132;SDS011;2080;51.038;7.008;2023-11-19T06:17:24;42.10;;;5.05;;
4132;SDS011;2080;51.038;7.008;2023-11-19T06:19:50;33.27;;;4.20;;
4132;SDS011;2080;51.038;7.008;2023-11-19T06:22:16;37.75;;;3.85;;
4132;SDS011;2080;51.038;7.008;2023-11-19T06:24:43;32.08;;;4.22;;
4132;SDS011;2080;51.038;7.008;2023-11-19T06:27:09;34.92;;;4.00;;
4132;SDS011;2080;51.038;7.008;2023-11-19T06:29:38;31.83;;;3.90;;
4132;SDS011;2080;51.038;7.008;2023-11-19T06:32:05;42.25;;;4.20;;
4132;SDS011;2080;51.038;7.008;2023-11-19T06:34:31;40.25;;;4.75;;
4132;SDS011;2080;51.038;7.008;2023-11-19T06:36:58;32.60;;;4.37;;
4132;SDS011;2080;51.038;7.008;2023-11-19T06:39:23;37.22;;;3.83;;
4132;SDS011;2080;51.038;7.008;2023-11-19T06:41:48;35.63;;;5.53;;
4132;SDS011;2080;51.038;7.008;2023-11-19T06:44:14;41.87;;;4.83;;
4132;SDS011;2080;51.038;7.008;2023-11-19T06:46:42;37.45;;;4.85;;
4132;SDS011;2080;51.038;7.008;2023-11-19T06:49:08;41.93;;;4.60;;
4132;SDS011;2080;51.038;7.008;2023-11-19T06:51:33;39.50;;;4.17;;
4132;SDS011;2080;51.038;7.008;2023-11-19T06:53:59;37.70;;;4.40;;
4132;SDS011;2080;51.038;7.008;2023-11-19T06:56:25;37.72;;;4.90;;
4132;SDS011;2080;51.038;7.008;2023-11-19T06:58:50;45.33;;;5.63;;
4132;SDS011;2080;51.038;7.008;2023-11-19T07:01:16;48.20;;;5.20;;
4132;SDS011;2080;51.038;7.008;2023-11-19T07:03:44;32.47;;;5.18;;
4132;SDS011;2080;51.038;7.008;2023-11-19T07:06:11;41.85;;;5.78;;
4132;SDS011;2080;51.038;7.008;2023-11-19T07:08:38;43.15;;;5.53;;
4132;SDS011;2080;51.038;7.008;2023-11-19T07:11:03;46.65;;;5.95;;
4132;SDS011;2080;51.038;7.008;2023-11-19T07:13:31;67.10;;;7.82;;
4132;SDS011;2080;51.038;7.008;2023-11-19T07:15:59;39.47;;;5.47;;
4132;SDS011;2080;51.038;7.008;2023-11-19T07:18:24;44.23;;;5.47;;
4132;SDS011;2080;51.038;7.008;2023-11-19T07:20:50;37.33;;;4.33;;
4132;SDS011;2080;51.038;7.008;2023-11-19T07:23:22;47.10;;;5.67;;
4132;SDS011;2080;51.038;7.008;2023-11-19T07:25:48;42.10;;;4.97;;
4132;SDS011;2080;51.038;7.008;2023-11-19T07:28:18;37.15;;;5.55;;
4132;SDS011;2080;51.038;7.008;2023-11-19T07:30:44;40.00;;;4.80;;
4132;SDS011;2080;51.038;7.008;2023-11-19T07:33:09;34.43;;;4.30;;
4132;SDS011;2080;51.038;7.008;2023-11-19T07:35:38;42.45;;;6.10;;
4132;SDS011;2080;51.038;7.008;2023-11-19T07:38:04;36.25;;;5.38;;
4132;SDS011;2080;51.038;7.008;2023-11-19T07:40:30;58.10;;;6.03;;
4132;SDS011;2080;51.038;7.008;2023-11-19T07:42:55;36.83;;;4.97;;
4132;SDS011;2080;51.038;7.008;2023-11-19T07:45:24;41.83;;;5.13;;
4132;SDS011;2080;51.038;7.008;2023-11-19T07:47:54;50.40;;;5.38;;
4132;SDS011;2080;51.038;7.008;2023-11-19T07:50:19;42.77;;;5.60;;
4132;SDS011;2080;51.038;7.008;2023-11-19T07:52:45;34.92;;;4.65;;
4132;SDS011;2080;51.038;7.008;2023-11-19T07:55:13;37.67;;;3.95;;
4132;SDS011;2080;51.038;7.008;2023-11-19T07:57:38;42.75;;;4.28;;
4132;SDS011;2080;51.038;7.008;2023-11-19T08:00:08;37.95;;;6.05;;
4132;SDS011;2080;51.038;7.008;2023-11-19T08:02:37;42.88;;;5.75;;
4132;SDS011;2080;51.038;7.008;2023-11-19T08:05:03;40.33;;;6.03;;
4132;SDS011;2080;51.038;7.008;2023-11-19T08:07:28;47.83;;;5.80;;
4132;SDS011;2080;51.038;7.008;2023-11-19T08:09:56;50.78;;;5.85;;
4132;SDS011;2080;51.038;7.008;2023-11-19T08:12:21;38.28;;;5.70;;
4132;SDS011;2080;51.038;7.008;2023-11-19T08:14:49;43.35;;;5.28;;
4132;SDS011;2080;51.038;7.008;2023-11-19T08:17:14;39.27;;;5.70;;
4132;SDS011;2080;51.038;7.008;2023-11-19T08:19:41;45.95;;;5.03;;
4132;SDS011;2080;51.038;7.008;2023-11-19T08:22:06;43.17;;;5.43;;
4132;SDS011;2080;51.038;7.008;2023-11-19T08:24:31;43.67;;;5.13;;
4132;SDS011;2080;51.038;7.008;2023-11-19T08:26:57;37.57;;;5.10;;
4132;SDS011;2080;51.038;7.008;2023-11-19T08:29:25;32.43;;;4.57;;
4132;SDS011;2080;51.038;7.008;2023-11-19T08:31:53;62.80;;;6.00;;
4132;SDS011;2080;51.038;7.008;2023-11-19T08:34:18;49.70;;;4.87;;
4132;SDS011;2080;51.038;7.008;2023-11-19T08:36:46;42.17;;;5.50;;
4132;SDS011;2080;51.038;7.008;2023-11-19T08:39:15;36.25;;;5.50;;
4132;SDS011;2080;51.038;7.008;2023-11-19T08:41:40;54.70;;;4.40;;
4132;SDS011;2080;51.038;7.008;2023-11-19T08:44:06;37.30;;;5.30;;
4132;SDS011;2080;51.038;7.008;2023-11-19T08:46:32;54.03;;;5.57;;
4132;SDS011;2080;51.038;7.008;2023-11-19T08:48:57;28.20;;;4.63;;
4132;SDS011;2080;51.038;7.008;2023-11-19T08:51:23;36.00;;;5.23;;
4132;SDS011;2080;51.038;7.008;2023-11-19T08:53:50;35.47;;;6.03;;
4132;SDS011;2080;51.038;7.008;2023-11-19T08:56:18;53.28;;;5.47;;
4132;SDS011;2080;51.038;7.008;2023-11-19T08:58:43;30.53;;;5.00;;
4132;SDS011;2080;51.038;7.008;2023-11-19T09:01:08;31.83;;;5.80;;
4132;SDS011;2080;51.038;7.008;2023-11-19T09:03:34;46.30;;;5.80;;
4132;SDS011;2080;51.038;7.008;2023-11-19T09:06:02;41.67;;;5.93;;
4132;SDS011;2080;51.038;7.008;2023-11-19T09:08:28;35.67;;;5.13;;
4132;SDS011;2080;51.038;7.008;2023-11-19T09:10:53;59.30;;;5.57;;
4132;SDS011;2080;51.038;7.008;2023-11-19T09:13:18;38.00;;;5.60;;
4132;SDS011;2080;51.038;7.008;2023-11-19T09:15:44;40.77;;;5.97;;
4132;SDS011;2080;51.038;7.008;2023-11-19T09:18:09;35.37;;;5.40;;
4132;SDS011;2080;51.038;7.008;2023-11-19T09:20:34;44.90;;;5.60;;
4132;SDS011;2080;51.038;7.008;2023-11-19T09:23:03;56.65;;;6.50;;
4132;SDS011;2080;51.038;7.008;2023-11-19T09:25:30;34.92;;;4.75;;
4132;SDS011;2080;51.038;7.008;2023-11-19T09:27:58;38.95;;;4.40;;
4132;SDS011;2080;51.038;7.008;2023-11-19T09:30:28;48.15;;;4.93;;
4132;SDS011;2080;51.038;7.008;2023-11-19T09:33:01;37.33;;;5.10;;
4132;SDS011;2080;51.038;7.008;2023-11-19T09:35:27;29.05;;;5.28;;
4132;SDS011;2080;51.038;7.008;2023-11-19T09:37:58;35.85;;;5.28;;
4132;SDS011;2080;51.038;7.008;2023-11-19T09:40:24;40.80;;;5.15;;
4132;SDS011;2080;51.038;7.008;2023-11-19T09:42:53;40.20;;;5.40;;
4132;SDS011;2080;51.038;7.008;2023-11-19T09:45:20;38.07;;;5.27;;
4132;SDS011;2080;51.038;7.008;2023-11-19T09:47:46;35.63;;;5.28;;
4132;SDS011;2080;51.038;7.008;2023-11-19T09:50:14;34.23;;;5.13;;
4132;SDS011;2080;51.038;7.008;2023-11-19T09:52:45;32.23;;;5.30;;
4132;SDS011;2080;51.038;7.008;2023-11-19T09:55:11;44.20;;;5.75;;
4132;SDS011;2080;51.038;7.008;2023-11-19T09:57:38;40.17;;;5.30;;
4132;SDS011;2080;51.038;7.008;2023-11-19T10:00:05;32.92;;;4.82;;
4132;SDS011;2080;51.038;7.008;2023-11-19T10:02:32;52.67;;;5.57;;
4132;SDS011;2080;51.038;7.008;2023-11-19T10:05:04;42.67;;;5.80;;
4132;SDS011;2080;51.038;7.008;2023-11-19T10:07:32;39.10;;;5.90;;
4132;SDS011;2080;51.038;7.008;2023-11-19T10:10:02;42.10;;;5.00;;
4132;SDS011;2080;51.038;7.008;2023-11-19T10:12:29;49.50;;;5.63;;
4132;SDS011;2080;51.038;7.008;2023-11-19T10:14:56;37.95;;;5.05;;
4132;SDS011;2080;51.038;7.008;2023-11-19T10:17:33;31.13;;;5.25;;
4132;SDS011;2080;51.038;7.008;2023-11-19T10:20:01;46.95;;;5.63;;
4132;SDS011;2080;51.038;7.008;2023-11-19T10:22:28;34.63;;;6.23;;
4132;SDS011;2080;51.038;7.008;2023-11-19T10:24:53;35.90;;;5.75;;
4132;SDS011;2080;51.038;7.008;2023-11-19T10:27:19;45.43;;;6.23;;
4132;SDS011;2080;51.038;7.008;2023-11-19T10:29:45;34.93;;;5.00;;
4132;SDS011;2080;51.038;7.008;2023-11-19T10:32:12;54.10;;;5.60;;
4132;SDS011;2080;51.038;7.008;2023-11-19T10:34:38;38.65;;;5.10;;
4132;SDS011;2080;51.038;7.008;2023-11-19T10:37:07;32.90;;;4.87;;
4132;SDS011;2080;51.038;7.008;2023-11-19T10:39:54;38.35;;;5.03;;
4132;SDS011;2080;51.038;7.008;2023-11-19T10:42:22;34.75;;;4.30;;
4132;SDS011;2080;51.038;7.008;2023-11-19T10:44:48;50.40;;;5.90;;
4132;SDS011;2080;51.038;7.008;2023-11-19T10:47:17;35.38;;;5.70;;
4132;SDS011;2080;51.038;7.008;2023-11-19T10:49:44;44.00;;;5.45;;
4132;SDS011;2080;51.038;7.008;2023-11-19T10:52:22;34.67;;;4.68;;
4132;SDS011;2080;51.038;7.008;2023-11-19T10:54:50;42.55;;;5.53;;
4132;SDS011;2080;51.038;7.008;2023-11-19T10:57:24;44.80;;;5.47;;
4132;SDS011;2080;51.038;7.008;2023-11-19T11:00:00;35.28;;;5.00;;
4132;SDS011;2080;51.038;7.008;2023-11-19T11:02:29;51.45;;;5.80;;
4132;SDS011;2080;51.038;7.008;2023-11-19T11:05:01;40.13;;;4.77;;
4132;SDS011;2080;51.038;7.008;2023-11-19T11:07:30;37.37;;;4.97;;
4132;SDS011;2080;51.038;7.008;2023-11-19T11:09:56;35.60;;;4.90;;
4132;SDS011;2080;51.038;7.008;2023-11-19T11:12:22;43.42;;;5.50;;
4132;SDS011;2080;51.038;7.008;2023-11-19T11:14:50;36.17;;;4.28;;
4132;SDS011;2080;51.038;7.008;2023-11-19T11:17:19;28.27;;;4.10;;
4132;SDS011;2080;51.038;7.008;2023-11-19T11:19:49;35.28;;;5.50;;
4132;SDS011;2080;51.038;7.008;2023-11-19T11:22:14;31.07;;;4.47;;
4132;SDS011;2080;51.038;7.008;2023-11-19T11:24:48;33.15;;;4.18;;
4132;SDS011;2080;51.038;7.008;2023-11-19T11:30:31;26.80;;;4.63;;
4132;SDS011;2080;51.038;7.008;2023-11-19T11:33:23;40.22;;;4.50;;
4132;SDS011;2080;51.038;7.008;2023-11-19T11:36:34;40.03;;;4.73;;
4132;SDS011;2080;51.038;7.008;2023-11-19T11:38:54;35.13;;;3.85;;
4132;SDS011;2080;51.038;7.008;2023-11-19T11:41:25;36.87;;;4.90;;
4132;SDS011;2080;51.038;7.008;2023-11-19T11:43:54;41.20;;;4.50;;
4132;SDS011;2080;51.038;7.008;2023-11-19T11:49:06;37.03;;;5.18;;
4132;SDS011;2080;51.038;7.008;2023-11-19T12:02:07;25.73;;;3.50;;
4132;SDS011;2080;51.038;7.008;2023-11-19T12:04:37;32.45;;;4.47;;
4132;SDS011;2080;51.038;7.008;2023-11-19T12:07:09;30.83;;;3.88;;
4132;SDS011;2080;51.038;7.008;2023-11-19T12:09:39;35.55;;;3.92;;
4132;SDS011;2080;51.038;7.008;2023-11-19T12:12:17;23.58;;;4.15;;
4132;SDS011;2080;51.038;7.008;2023-11-19T12:20:01;25.83;;;3.80;;
4132;SDS011;2080;51.038;7.008;2023-11-19T12:22:37;28.98;;;3.40;;
4132;SDS011;2080;51.038;7.008;2023-11-19T12:25:06;36.80;;;4.00;;
4132;SDS011;2080;51.038;7.008;2023-11-19T12:27:35;37.93;;;4.00;;
4132;SDS011;2080;51.038;7.008;2023-11-19T12:30:04;23.33;;;3.20;;
4132;SDS011;2080;51.038;7.008;2023-11-19T12:32:40;32.85;;;3.50;;
4132;SDS011;2080;51.038;7.008;2023-11-19T12:35:09;39.35;;;4.82;;
4132;SDS011;2080;51.038;7.008;2023-11-19T12:40:14;28.90;;;3.72;;
4132;SDS011;2080;51.038;7.008;2023-11-19T12:42:48;37.00;;;5.13;;
4132;SDS011;2080;51.038;7.008;2023-11-19T12:45:18;37.00;;;4.65;;
4132;SDS011;2080;51.038;7.008;2023-11-19T12:47:46;33.30;;;5.07;;
4132;SDS011;2080;51.038;7.008;2023-11-19T12:50:17;32.38;;;4.22;;
4132;SDS011;2080;51.038;7.008;2023-11-19T12:52:54;31.88;;;4.65;;
4132;SDS011;2080;51.038;7.008;2023-11-19T12:55:32;35.78;;;4.38;;
4132;SDS011;2080;51.038;7.008;2023-11-19T12:57:58;30.65;;;3.95;;
4132;SDS011;2080;51.038;7.008;2023-11-19T13:00:26;32.93;;;4.50;;
4132;SDS011;2080;51.038;7.008;2023-11-19T13:02:55;28.45;;;4.20;;
4132;SDS011;2080;51.038;7.008;2023-11-19T13:07:53;27.92;;;3.35;;
4132;SDS011;2080;51.038;7.008;2023-11-19T13:10:24;33.17;;;4.65;;
4132;SDS011;2080;51.038;7.008;2023-11-19T13:13:08;42.20;;;3.80;;
4132;SDS011;2080;51.038;7.008;2023-11-19T13:15:33;28.77;;;4.70;;
4132;SDS011;2080;51.038;7.008;2023-11-19T13:18:02;33.42;;;3.28;;
4132;SDS011;2080;51.038;7.008;2023-11-19T13:20:28;24.75;;;3.40;;
4132;SDS011;2080;51.038;7.008;2023-11-19T13:22:57;23.85;;;4.10;;
4132;SDS011;2080;51.038;7.008;2023-11-19T13:25:27;31.17;;;4.45;;
4132;SDS011;2080;51.038;7.008;2023-11-19T13:27:53;26.98;;;3.50;;
4132;SDS011;2080;51.038;7.008;2023-11-19T13:30:22;24.67;;;3.35;;
4132;SDS011;2080;51.038;7.008;2023-11-19T13:32:51;30.75;;;3.20;;
4132;SDS011;2080;51.038;7.008;2023-11-19T13:35:17;32.67;;;4.13;;
4132;SDS011;2080;51.038;7.008;2023-11-19T13:37:44;27.60;;;3.70;;
4132;SDS011;2080;51.038;7.008;2023-11-19T13:40:10;29.38;;;3.25;;
4132;SDS011;2080;51.038;7.008;2023-11-19T13:42:42;25.67;;;4.00;;
4132;SDS011;2080;51.038;7.008;2023-11-19T13:45:10;29.15;;;4.00;;
4132;SDS011;2080;51.038;7.008;2023-11-19T13:47:39;34.17;;;4.07;;
4132;SDS011;2080;51.038;7.008;2023-11-19T13:50:08;33.60;;;4.60;;
4132;SDS011;2080;51.038;7.008;2023-11-19T13:52:43;26.27;;;3.50;;
4132;SDS011;2080;51.038;7.008;2023-11-19T13:55:11;27.33;;;3.67;;
4132;SDS011;2080;51.038;7.008;2023-11-19T13:57:37;35.05;;;4.22;;
4132;SDS011;2080;51.038;7.008;2023-11-19T14:00:04;27.45;;;4.13;;
4132;SDS011;2080;51.038;7.008;2023-11-19T14:02:48;36.08;;;5.68;;
4132;SDS011;2080;51.038;7.008;2023-11-19T14:05:16;32.43;;;4.00;;
4132;SDS011;2080;51.038;7.008;2023-11-19T14:07:44;32.43;;;4.63;;
4132;SDS011;2080;51.038;7.008;2023-11-19T14:10:15;32.08;;;4.40;;
4132;SDS011;2080;51.038;7.008;2023-11-19T14:12:41;39.35;;;4.70;;
4132;SDS011;2080;51.038;7.008;2023-11-19T14:15:07;34.50;;;4.93;;
4132;SDS011;2080;51.038;7.008;2023-11-19T14:17:42;29.90;;;5.03;;
4132;SDS011;2080;51.038;7.008;2023-11-19T14:20:08;31.30;;;4.95;;
4132;SDS011;2080;51.038;7.008;2023-11-19T14:22:41;43.25;;;4.63;;
4132;SDS011;2080;51.038;7.008;2023-11-19T14:25:10;35.22;;;5.85;;
4132;SDS011;2080;51.038;7.008;2023-11-19T14:27:39;30.95;;;4.30;;
4132;SDS011;2080;51.038;7.008;2023-11-19T14:30:08;35.53;;;4.63;;
4132;SDS011;2080;51.038;7.008;2023-11-19T14:32:43;38.83;;;3.50;;
4132;SDS011;2080;51.038;7.008;2023-11-19T14:35:10;27.58;;;4.10;;
4132;SDS011;2080;51.038;7.008;2023-11-19T14:37:36;31.67;;;3.67;;
4132;SDS011;2080;51.038;7.008;2023-11-19T14:40:02;40.28;;;4.90;;
4132;SDS011;2080;51.038;7.008;2023-11-19T14:42:33;30.83;;;3.42;;
4132;SDS011;2080;51.038;7.008;2023-11-19T14:45:02;34.30;;;3.85;;
4132;SDS011;2080;51.038;7.008;2023-11-19T14:47:27;36.53;;;3.40;;
4132;SDS011;2080;51.038;7.008;2023-11-19T14:49:54;29.50;;;3.60;;
4132;SDS011;2080;51.038;7.008;2023-11-19T14:52:22;27.93;;;3.80;;
4132;SDS011;2080;51.038;7.008;2023-11-19T14:54:50;30.70;;;3.67;;
4132;SDS011;2080;51.038;7.008;2023-11-19T14:57:18;26.95;;;4.05;;
4132;SDS011;2080;51.038;7.008;2023-11-19T14:59:46;33.10;;;3.40;;
4132;SDS011;2080;51.038;7.008;2023-11-19T15:02:14;30.20;;;3.43;;
4132;SDS011;2080;51.038;7.008;2023-11-19T15:04:42;23.50;;;3.20;;
4132;SDS011;2080;51.038;7.008;2023-11-19T15:07:09;36.13;;;4.10;;
4132;SDS011;2080;51.038;7.008;2023-11-19T15:09:35;28.67;;;3.53;;
4132;SDS011;2080;51.038;7.008;2023-11-19T15:12:01;31.30;;;4.00;;
4132;SDS011;2080;51.038;7.008;2023-11-19T15:14:27;33.85;;;4.60;;
4132;SDS011;2080;51.038;7.008;2023-11-19T15:16:54;28.33;;;4.10;;
4132;SDS011;2080;51.038;7.008;2023-11-19T15:19:25;29.45;;;4.22;;
4132;SDS011;2080;51.038;7.008;2023-11-19T15:21:52;25.33;;;2.90;;
4132;SDS011;2080;51.038;7.008;2023-11-19T15:24:20;37.60;;;4.07;;
4132;SDS011;2080;51.038;7.008;2023-11-19T15:26:45;35.23;;;4.30;;
4132;SDS011;2080;51.038;7.008;2023-11-19T15:29:12;36.60;;;4.40;;